Soure, Brazil
Current Conditions -  °F | °C
As of 6:00 PM on Saturday 22 Nov 2014 (Local Time) from SBBE Reporting Station
Broken Clouds Broken Clouds  
Wind Chill: 82°   Ceiling: 3500
Heat Index: 89°   Visibility: 6mi
Dew Point: 75°   Wind: 16mph
Humidity: 79%   Direction: 60°ENE
Pressure: 29.77"   Gusts: NA
Location:  0.72°S, 48.52°W
Report Text: SBBE 222100Z 06014KT 9999 BKN035 28/24 Q1008
Loading
Personal Weather Stations






























Interactive Weather Map New forecast layout! Learn more

10-Day Weather Forecast

Advertisements
Track Severe Weather on mobile